createdAt,value
2022-10-12T00:00:08.942Z,14.65
2022-10-12T00:05:41.053Z,15.95
2022-10-12T00:10:45.675Z,16.48
2022-10-12T00:15:49.609Z,15.25
2022-10-12T00:21:03.163Z,13.73
2022-10-12T00:26:09.578Z,26.92
2022-10-12T00:31:15.357Z,79.82
2022-10-12T00:36:22.857Z,56.80
2022-10-12T00:41:28.927Z,24.75
2022-10-12T00:46:37.255Z,18.80
2022-10-12T00:51:45.188Z,23.48
2022-10-12T00:56:49.905Z,18.55
2022-10-12T01:01:53.663Z,18.60
2022-10-12T01:06:59.019Z,17.70
2022-10-12T01:12:06.910Z,19.40
2022-10-12T01:17:23.052Z,16.70
2022-10-12T01:27:47.656Z,25.88
2022-10-12T01:33:09.386Z,18.95
2022-10-12T01:38:29.801Z,17.30
2022-10-12T01:43:39.605Z,16.45
2022-10-12T01:48:47.288Z,17.60
2022-10-12T01:53:58.422Z,14.15
2022-10-12T01:59:10.060Z,13.57
2022-10-12T02:04:22.769Z,11.25
2022-10-12T02:09:29.562Z,10.80
2022-10-12T02:14:39.610Z,11.07
2022-10-12T02:19:49.908Z,11.77
2022-10-12T02:24:57.605Z,10.90
2022-10-12T02:30:01.581Z,12.38
2022-10-12T02:35:14.316Z,11.55
2022-10-12T02:40:25.127Z,12.25
2022-10-12T02:45:30.205Z,12.15
2022-10-12T02:50:35.945Z,12.47
2022-10-12T02:55:40.374Z,11.68
2022-10-12T03:00:44.212Z,12.27
2022-10-12T03:05:49.312Z,14.05
2022-10-12T03:10:53.181Z,10.90
2022-10-12T03:16:02.807Z,11.60
2022-10-12T03:21:08.108Z,10.88
2022-10-12T03:26:11.929Z,10.90
2022-10-12T03:31:15.801Z,10.73
2022-10-12T03:36:20.854Z,10.20
2022-10-12T03:41:24.641Z,10.37
2022-10-12T03:46:30.851Z,9.60
2022-10-12T03:51:35.979Z,10.95
2022-10-12T03:56:39.894Z,10.87
2022-10-12T04:01:43.608Z,12.38
2022-10-12T04:06:48.780Z,11.85
2022-10-12T04:11:52.554Z,12.00
2022-10-12T04:16:56.317Z,11.13
2022-10-12T04:22:01.474Z,10.15
2022-10-12T04:27:05.266Z,11.63
2022-10-12T04:32:12.491Z,10.70
2022-10-12T04:37:17.934Z,11.00
2022-10-12T04:42:21.647Z,10.50
2022-10-12T04:47:25.527Z,13.32
2022-10-12T04:52:30.609Z,11.57
2022-10-12T04:57:34.463Z,10.77
2022-10-12T05:02:38.362Z,11.68
2022-10-12T05:07:43.478Z,10.60
2022-10-12T05:12:47.362Z,8.07
2022-10-12T05:17:51.512Z,7.80
2022-10-12T05:22:58.235Z,7.03
2022-10-12T05:28:02.267Z,7.75
2022-10-12T05:33:06.468Z,8.73
2022-10-12T05:38:12.088Z,9.00
2022-10-12T05:43:15.850Z,11.05
2022-10-12T05:48:19.703Z,13.00
2022-10-12T05:53:24.941Z,13.27
2022-10-12T05:58:30.173Z,15.98
2022-10-12T06:03:35.192Z,19.25
2022-10-12T06:08:40.787Z,20.90
2022-10-12T06:13:45.361Z,21.10
2022-10-12T06:18:50.427Z,20.67
2022-10-12T06:23:55.666Z,19.15
2022-10-12T06:29:01.489Z,18.85
2022-10-12T06:34:07.258Z,21.02
2022-10-12T06:39:13.925Z,22.02
2022-10-12T06:44:17.667Z,18.95
2022-10-12T06:49:21.567Z,18.83
2022-10-12T06:54:26.856Z,21.42
2022-10-12T06:59:30.694Z,18.33
2022-10-12T07:04:34.726Z,19.13
2022-10-12T07:09:39.979Z,20.30
2022-10-12T07:14:43.785Z,21.07
2022-10-12T07:19:47.710Z,19.17
2022-10-12T07:24:53.077Z,18.92
2022-10-12T07:29:57.440Z,18.25
2022-10-12T07:35:01.355Z,16.30
2022-10-12T07:40:08.047Z,16.52
2022-10-12T07:45:12.157Z,14.65
2022-10-12T07:50:16.130Z,15.23
2022-10-12T07:55:23.800Z,15.13
2022-10-12T08:00:27.742Z,14.98
2022-10-12T08:05:31.794Z,14.32
2022-10-12T08:10:38.306Z,11.45
2022-10-12T08:15:42.217Z,9.48
2022-10-12T08:20:46.067Z,9.82
2022-10-12T08:25:55.759Z,11.40
2022-10-12T08:30:59.749Z,9.00
2022-10-12T08:36:05.246Z,9.23
2022-10-12T08:41:24.782Z,8.70
2022-10-12T08:46:30.459Z,8.05
2022-10-12T08:51:45.315Z,18.58
2022-10-12T08:56:54.803Z,9.50
2022-10-12T09:02:06.607Z,10.13
2022-10-12T09:07:17.045Z,11.70
2022-10-12T09:12:34.745Z,10.25
2022-10-12T09:17:43.606Z,9.82
2022-10-12T09:22:50.945Z,8.60
2022-10-12T09:28:07.526Z,8.70
2022-10-12T09:33:19.939Z,6.80
2022-10-12T09:38:24.586Z,7.47
2022-10-12T09:43:29.940Z,3.78
2022-10-12T09:48:33.756Z,7.10
2022-10-12T09:53:44.636Z,5.10
2022-10-12T09:58:54.826Z,4.53
2022-10-12T10:04:15.146Z,4.10
2022-10-12T10:09:30.587Z,8.90
2022-10-12T10:14:37.136Z,5.93
2022-10-12T10:19:41.276Z,5.40
2022-10-12T10:24:50.977Z,4.72
2022-10-12T10:30:25.501Z,2.90
2022-10-12T10:35:33.302Z,5.93
2022-10-12T10:40:37.265Z,5.05
2022-10-12T10:51:00.425Z,4.07
2022-10-12T10:56:09.444Z,3.95
2022-10-12T11:01:23.866Z,5.03
2022-10-12T11:06:38.358Z,4.45
2022-10-12T11:11:44.978Z,4.00
2022-10-12T11:16:54.228Z,3.40
2022-10-12T11:22:02.300Z,3.30
2022-10-12T11:27:12.493Z,3.42
2022-10-12T11:32:26.713Z,3.90
2022-10-12T11:37:39.647Z,3.83
2022-10-12T11:42:43.922Z,4.60
2022-10-12T11:47:53.409Z,4.65
2022-10-12T11:52:59.477Z,6.28
2022-10-12T11:58:13.735Z,3.67
2022-10-12T12:03:27.645Z,4.35
2022-10-12T12:08:59.039Z,4.40
2022-10-12T12:14:35.984Z,3.63
2022-10-12T12:19:43.382Z,4.80
2022-10-12T12:25:04.294Z,4.57
2022-10-12T12:30:28.944Z,4.47
2022-10-12T12:35:38.912Z,4.45
2022-10-12T12:40:55.097Z,4.35
2022-10-12T12:46:00.792Z,4.28
2022-10-12T12:51:08.668Z,4.50
2022-10-12T12:56:20.783Z,3.97
2022-10-12T13:01:45.403Z,3.97
2022-10-12T13:07:39.819Z,4.00
2022-10-12T13:13:25.746Z,4.82
2022-10-12T13:18:49.844Z,3.92
2022-10-12T13:24:05.895Z,5.60
2022-10-12T13:29:22.787Z,9.40
2022-10-12T13:34:32.621Z,5.75
2022-10-12T13:39:40.913Z,3.80
2022-10-12T13:44:48.865Z,4.40
2022-10-12T13:49:54.848Z,3.95
2022-10-12T13:54:59.384Z,3.20
2022-10-12T14:00:13.520Z,5.30
2022-10-12T14:05:19.866Z,6.32
2022-10-12T14:10:41.732Z,7.15
2022-10-12T14:15:47.857Z,6.47
2022-10-12T14:21:12.929Z,4.90
2022-10-12T14:26:37.045Z,6.63
2022-10-12T14:31:53.654Z,6.07
2022-10-12T14:37:05.972Z,5.93
2022-10-12T14:42:26.022Z,5.50
2022-10-12T14:47:48.094Z,4.60
2022-10-12T14:53:08.396Z,6.07
2022-10-12T14:58:25.922Z,6.85
2022-10-12T15:03:33.103Z,9.40
2022-10-12T15:08:46.816Z,8.18
2022-10-12T15:13:52.993Z,7.03
2022-10-12T15:19:02.748Z,4.45
2022-10-12T15:24:16.524Z,4.15
2022-10-12T15:29:23.199Z,8.95
2022-10-12T15:34:30.508Z,5.15
2022-10-12T15:39:37.494Z,6.70
2022-10-12T15:44:45.265Z,10.20
2022-10-12T15:49:53.057Z,9.32
2022-10-12T15:55:05.758Z,11.63
2022-10-12T16:00:16.725Z,16.38
2022-10-12T16:05:26.051Z,10.68
2022-10-12T16:10:43.043Z,9.88
2022-10-12T16:15:48.926Z,10.32
2022-10-12T16:20:57.527Z,11.60
2022-10-12T16:26:04.486Z,13.15
2022-10-12T16:31:12.430Z,16.27
2022-10-12T16:36:18.531Z,24.67
2022-10-12T16:41:22.533Z,67.72
2022-10-12T16:46:26.559Z,31.33
2022-10-12T16:51:31.953Z,33.15
2022-10-12T16:56:39.404Z,46.65
2022-10-12T17:01:44.193Z,54.97
2022-10-12T17:06:49.762Z,33.90
2022-10-12T17:11:53.567Z,35.28
2022-10-12T17:16:58.045Z,23.95
2022-10-12T17:22:06.593Z,26.05
2022-10-12T17:27:14.606Z,46.75
2022-10-12T17:32:19.108Z,119.47
2022-10-12T17:37:25.089Z,50.58
2022-10-12T17:42:29.639Z,44.88
2022-10-12T17:47:33.577Z,49.83
2022-10-12T17:52:48.003Z,43.40
2022-10-12T17:57:52.101Z,43.45
2022-10-12T18:02:55.990Z,49.30
2022-10-12T18:08:01.253Z,69.45
2022-10-12T18:13:05.214Z,67.73
2022-10-12T18:18:14.276Z,58.38
2022-10-12T18:23:21.156Z,61.30
2022-10-12T18:33:30.231Z,58.30
2022-10-12T18:38:35.570Z,67.13
2022-10-12T18:43:39.761Z,53.53
2022-10-12T18:48:43.961Z,53.88
2022-10-12T18:53:49.510Z,64.13
2022-10-12T18:58:54.187Z,64.03
2022-10-12T19:04:00.197Z,85.88
2022-10-12T19:14:14.215Z,77.07
2022-10-12T19:19:21.378Z,78.72
2022-10-12T19:24:27.201Z,74.07
2022-10-12T19:29:31.412Z,76.07
2022-10-12T19:34:35.304Z,119.18
2022-10-12T19:39:44.743Z,75.05
2022-10-12T19:44:49.004Z,81.97
2022-10-12T19:49:56.456Z,96.30
2022-10-12T19:55:01.843Z,78.35
2022-10-12T20:00:08.783Z,71.38
2022-10-12T20:05:16.655Z,61.50
2022-10-12T20:10:22.138Z,60.78
2022-10-12T20:15:26.118Z,57.92
2022-10-12T20:20:30.157Z,58.47
2022-10-12T20:25:35.591Z,49.72
2022-10-12T20:30:39.932Z,57.77
2022-10-12T20:35:48.132Z,50.67
2022-10-12T20:41:02.605Z,50.97
2022-10-12T20:46:08.255Z,54.38
2022-10-12T20:51:17.922Z,47.47
2022-10-12T20:56:23.159Z,49.67
2022-10-12T21:01:28.400Z,52.60
2022-10-12T21:06:32.750Z,48.72
2022-10-12T21:11:38.496Z,46.38
2022-10-12T21:16:42.908Z,46.13
2022-10-12T21:21:47.530Z,65.72
2022-10-12T21:26:53.356Z,45.80
2022-10-12T21:31:57.556Z,52.00
2022-10-12T21:37:01.489Z,44.80
2022-10-12T21:42:07.129Z,44.53
2022-10-12T21:47:17.303Z,42.17
2022-10-12T21:52:21.995Z,39.25
2022-10-12T21:57:28.807Z,39.25
2022-10-12T22:02:32.631Z,40.20
2022-10-12T22:07:36.538Z,38.30
2022-10-12T22:12:41.832Z,40.42
2022-10-12T22:17:45.699Z,40.77
2022-10-12T22:22:49.531Z,39.45
2022-10-12T22:27:54.926Z,38.10
2022-10-12T22:32:58.680Z,41.70
2022-10-12T22:38:02.524Z,37.80
2022-10-12T22:43:07.610Z,36.90
2022-10-12T22:48:11.264Z,39.83
2022-10-12T22:53:16.144Z,36.03
2022-10-12T22:58:21.496Z,34.80
2022-10-12T23:03:25.304Z,39.50
2022-10-12T23:08:29.906Z,32.13
2022-10-12T23:13:40.766Z,33.40
2022-10-12T23:18:44.695Z,34.95
2022-10-12T23:23:48.546Z,30.00
2022-10-12T23:28:54.546Z,32.25
2022-10-12T23:33:59.232Z,30.90
2022-10-12T23:39:05.737Z,30.33
2022-10-12T23:44:11.355Z,33.92
2022-10-12T23:49:15.065Z,30.40
2022-10-12T23:54:18.980Z,29.77
2022-10-12T23:59:24.865Z,28.55
